Ernest Shackleton — ZDLS1 — position and weather

sailwx.info

Track history (hours):
 
Tides and Currents Weather Stations Pressure Air Temp Water Temp Dewpoint Dewpoint Depression Visibility Wind Speed Wind Dir Waves Ship Positions

Oceanographic research ship Ernest Shackleton (UK/Norway)

Detailed information on ship capabilities available from University of Delaware's Ocean Information Center and ARCUS's ALIAS (Arctic Logistics Information and Support) project.

Last reported at 2018-Sep-18 17:23 UTC. Time now 2018-Sep-19 01:19 UTC.
Position N 57°26' E 010°33'.

Length 80 m; beam 17 m; draft 7.4 m.

Type: Cargo ship. MMSI: 740357000.

Date/timePositionNaut miles runAvg speedWind from/ knotsBaromVisibWave heightAir tempDewpointWater temp
2018-Sep-18 17:23N 57°26' E 010°33'0 0.0
2018-Sep-18 16:59N 57°26' E 010°33'0 0.0
2018-Sep-18 16:29N 57°26' E 010°33'0 0.0
2018-Sep-18 15:53N 57°26' E 010°33'0 0.0
2018-Sep-18 15:29N 57°26' E 010°33'0 0.1
2018-Sep-18 14:14N 57°26' E 010°33'0 0.3
2018-Sep-18 13:56N 57°26' E 010°33'0 0.0
2018-Sep-18 13:23N 57°26' E 010°33'0 0.0
2018-Sep-18 12:56N 57°26' E 010°33'0 0.0
2018-Sep-18 12:20N 57°26' E 010°33'0 0.0
2018-Sep-18 11:59N 57°26' E 010°33'0 0.0
2018-Sep-18 11:26N 57°26' E 010°33'0 0.0
2018-Sep-18 10:59N 57°26' E 010°33'0 0.0
2018-Sep-18 10:26N 57°26' E 010°33'0 0.0
2018-Sep-18 09:59N 57°26' E 010°33'0 0.0
2018-Sep-18 09:23N 57°26' E 010°33'0 0.0
2018-Sep-18 08:41N 57°26' E 010°33'0 0.0
2018-Sep-18 08:23N 57°26' E 010°33'0 0.0
2018-Sep-18 07:26N 57°26' E 010°33'0 0.0
2018-Sep-18 07:02N 57°26' E 010°33'0 0.0
2018-Sep-18 06:59N 57°26' E 010°33'0 0.0
2018-Sep-18 06:29N 57°26' E 010°33'0 0.0
2018-Sep-18 05:59N 57°26' E 010°33'0 0.0
2018-Sep-18 05:29N 57°26' E 010°33'0 0.0
2018-Sep-18 04:59N 57°26' E 010°33'0 0.0
2018-Sep-18 04:29N 57°26' E 010°33'0 0.0
2018-Sep-18 03:59N 57°26' E 010°33'0 0.0
2018-Sep-17 19:53N 57°26' E 010°33'0 0.0
2018-Sep-17 19:26N 57°26' E 010°33'0 0.0
2018-Sep-17 18:47N 57°26' E 010°33'0 0.0
2018-Sep-17 18:26N 57°26' E 010°33'0 0.0
2018-Sep-17 17:44N 57°26' E 010°33'0 0.4
2018-Sep-17 17:30N 57°26' E 010°33'3 7.4
2018-Sep-17 17:03N 57°25' E 010°38'1 9.2
2018-Sep-17 16:59N 57°24' E 010°39'1 3.0
2018-Sep-17 16:30N 57°25' E 010°42'2 4.8
2018-Sep-17 16:04N 57°25' E 010°46'0 2.7
2018-Sep-17 16:00N 57°25' E 010°46'0 0.1
2018-Sep-17 15:30N 57°25' E 010°46'0 0.0
2018-Sep-17 15:03N 57°25' E 010°46'0 0.0
2018-Sep-17 15:00N 57°25' E 010°46'0 0.0
2018-Sep-17 14:30N 57°25' E 010°46'0 0.2
2018-Sep-17 14:01N 57°25' E 010°46'0 0.0
2018-Sep-17 13:30N 57°25' E 010°46'0 0.1
2018-Sep-17 13:03N 57°25' E 010°46'0 0.7
2018-Sep-17 13:00N 57°25' E 010°46'0 0.5
2018-Sep-17 12:31N 57°25' E 010°47'0 0.5
2018-Sep-17 12:03N 57°25' E 010°47'0 0.8
2018-Sep-17 12:00N 57°25' E 010°47'2 4.4
2018-Sep-17 11:30N 57°27' E 010°49'4 9.4
2018-Sep-17 11:03N 57°31' E 010°53'110.5
2018-Sep-17 11:00N 57°31' E 010°53'5 9.6
2018-Sep-17 10:30N 57°29' E 010°45'510.4
2018-Sep-17 10:02N 57°26' E 010°38'010.3
2018-Sep-17 10:00N 57°25' E 010°38'3 2.4
2018-Sep-17 08:49N 57°26' E 010°33'0 0.0
2018-Sep-17 08:19N 57°26' E 010°33'0 0.0
2018-Sep-17 08:01N 57°26' E 010°33'0 0.0
2018-Sep-17 07:55N 57°26' E 010°33'0 0.0
2018-Sep-17 07:22N 57°26' E 010°33'0 0.0
2018-Sep-17 06:25N 57°26' E 010°33'0 0.0
2018-Sep-17 05:52N 57°26' E 010°33'0 0.0
2018-Sep-17 01:22N 57°26' E 010°33'0 0.0
2018-Sep-16 10:37N 57°26' E 010°33'0 0.0
2018-Sep-16 10:10N 57°26' E 010°33'0 0.0
2018-Sep-16 10:01N 57°26' E 010°33'0 0.0
2018-Sep-16 09:55N 57°26' E 010°33'0 0.0
2018-Sep-16 08:07N 57°26' E 010°33'0 0.0
2018-Sep-16 06:31N 57°26' E 010°33'0 0.0
2018-Sep-16 06:28N 57°26' E 010°33'0 0.0
2018-Sep-16 05:49N 57°26' E 010°33'0 0.0
2018-Sep-16 05:28N 57°26' E 010°33'0 0.0
2018-Sep-16 05:01N 57°26' E 010°33'0 0.1
2018-Sep-16 04:58N 57°26' E 010°33'0 0.0
2018-Sep-16 04:25N 57°26' E 010°33'0 0.0
2018-Sep-16 04:01N 57°26' E 010°33'0 0.0
2018-Sep-16 03:58N 57°26' E 010°33'0 0.0
2018-Sep-16 03:28N 57°26' E 010°33'0 0.0
2018-Sep-16 02:58N 57°26' E 010°33'0 0.0
2018-Sep-16 02:25N 57°26' E 010°33'0 0.0
2018-Sep-16 02:01N 57°26' E 010°33'0 0.0
2018-Sep-16 01:52N 57°26' E 010°33'0 0.0
2018-Sep-16 01:28N 57°26' E 010°33'0 0.0
2018-Sep-16 00:55N 57°26' E 010°33'0 0.0
2018-Sep-16 00:28N 57°26' E 010°33'0 0.0
2018-Sep-15 23:55N 57°26' E 010°33'0 0.0
2018-Sep-15 23:13N 57°26' E 010°33'0 0.0
2018-Sep-15 23:01N 57°26' E 010°33'0 0.1
2018-Sep-15 22:58N 57°26' E 010°33'0 0.0
2018-Sep-15 22:28N 57°26' E 010°33'0 0.0
2018-Sep-15 21:58N 57°26' E 010°33'0 0.0
2018-Sep-15 21:25N 57°26' E 010°33'0 0.0
2018-Sep-15 21:01N 57°26' E 010°33'0 0.0
2018-Sep-15 20:58N 57°26' E 010°33'0 0.0
2018-Sep-15 18:19N 57°26' E 010°33'0 0.0
2018-Sep-15 17:31N 57°26' E 010°33'0 0.0
2018-Sep-15 17:19N 57°26' E 010°33'0 0.0
2018-Sep-15 16:49N 57°26' E 010°33'0 0.0
2018-Sep-15 16:28N 57°26' E 010°33'0 0.0
2018-Sep-15 15:19N 57°26' E 010°33'0 0.0
2018-Sep-15 14:55N 57°26' E 010°33'0 0.0
2018-Sep-15 14:07N 57°26' E 010°33'0 0.0
2018-Sep-15 13:16N 57°26' E 010°33'0 0.0
2018-Sep-15 13:01N 57°26' E 010°33'0 0.0
2018-Sep-15 12:37N 57°26' E 010°33'0 0.0
2018-Sep-15 12:16N 57°26' E 010°33'0 0.0
2018-Sep-15 11:58N 57°26' E 010°33'0 0.0
2018-Sep-15 11:25N 57°26' E 010°33'0 0.0
2018-Sep-15 10:55N 57°26' E 010°33'0 0.0
2018-Sep-15 10:28N 57°26' E 010°33'0 0.0
2018-Sep-15 09:55N 57°26' E 010°33'0 0.0
2018-Sep-15 08:22N 57°26' E 010°33'0 0.0
2018-Sep-15 07:58N 57°26' E 010°33'0 0.0
2018-Sep-15 07:28N 57°26' E 010°33'0 0.0
2018-Sep-15 07:01N 57°26' E 010°33'0 0.1
2018-Sep-15 06:55N 57°26' E 010°33'0 0.0
2018-Sep-15 06:19N 57°26' E 010°33'0 0.0
2018-Sep-15 05:58N 57°26' E 010°33'0 0.0
2018-Sep-15 05:25N 57°26' E 010°33'0 0.0
2018-Sep-15 05:01N 57°26' E 010°33'0 0.1
2018-Sep-15 04:58N 57°26' E 010°33'0 0.0
2018-Sep-15 04:25N 57°26' E 010°33'0 0.0
2018-Sep-15 04:01N 57°26' E 010°33'0 0.1
2018-Sep-15 03:58N 57°26' E 010°33'0 0.0
2018-Sep-15 03:25N 57°26' E 010°33'0 0.0
2018-Sep-15 02:37N 57°26' E 010°33'0 0.0
2018-Sep-15 02:10N 57°26' E 010°33'0 0.0
2018-Sep-15 01:58N 57°26' E 010°33'0 0.0
2018-Sep-15 01:22N 57°26' E 010°33'0 0.0
2018-Sep-15 00:58N 57°26' E 010°33'0 0.0
2018-Sep-15 00:28N 57°26' E 010°33'0 0.0
2018-Sep-14 23:55N 57°26' E 010°33'0 0.0
2018-Sep-14 23:25N 57°26' E 010°33'0 0.0
2018-Sep-14 22:55N 57°26' E 010°33'0 0.0
2018-Sep-14 22:25N 57°26' E 010°33'0 0.0
2018-Sep-14 21:46N 57°26' E 010°33'0 0.0
2018-Sep-14 21:25N 57°26' E 010°33'0 0.0
2018-Sep-14 20:55N 57°26' E 010°33'0 0.0
2018-Sep-14 20:28N 57°26' E 010°33'0 0.0
2018-Sep-14 19:52N 57°26' E 010°33'0 0.0
2018-Sep-14 19:13N 57°26' E 010°33'0 0.0
2018-Sep-14 18:46N 57°26' E 010°33'0 0.0
2018-Sep-14 18:28N 57°26' E 010°33'0 0.0
2018-Sep-14 18:01N 57°26' E 010°33'0 0.0
2018-Sep-14 17:43N 57°26' E 010°33'0 0.0
2018-Sep-14 17:19N 57°26' E 010°33'0 0.0
2018-Sep-14 16:55N 57°26' E 010°33'0 0.0
2018-Sep-14 16:28N 57°26' E 010°33'0 0.0
2018-Sep-14 15:52N 57°26' E 010°33'0 0.0
2018-Sep-14 15:25N 57°26' E 010°33'0 0.0
2018-Sep-14 15:01N 57°26' E 010°33'0 0.0
2018-Sep-14 14:58N 57°26' E 010°33'0 0.0
2018-Sep-14 14:28N 57°26' E 010°33'0 0.0
2018-Sep-14 13:58N 57°26' E 010°33'0 0.0
2018-Sep-14 13:25N 57°26' E 010°33'0 0.0
2018-Sep-14 12:49N 57°26' E 010°33'0 0.0
2018-Sep-14 12:25N 57°26' E 010°33'0 0.0
2018-Sep-14 12:01N 57°26' E 010°33'0 0.0
2018-Sep-14 11:58N 57°26' E 010°33'0 0.0
2018-Sep-14 11:28N 57°26' E 010°33'0 0.0
2018-Sep-14 10:55N 57°26' E 010°33'0 0.0
2018-Sep-14 10:28N 57°26' E 010°33'0 0.0
2018-Sep-14 10:01N 57°26' E 010°33'0 0.1
2018-Sep-14 09:58N 57°26' E 010°33'0 0.0
2018-Sep-14 09:25N 57°26' E 010°33'0 0.0
2018-Sep-14 08:58N 57°26' E 010°33'0 0.0
2018-Sep-14 08:28N 57°26' E 010°33'0 0.0
2018-Sep-14 08:01N 57°26' E 010°33'0 0.1
2018-Sep-14 07:58N 57°26' E 010°33'0 0.0
2018-Sep-14 07:28N 57°26' E 010°33'0 0.0
2018-Sep-14 06:58N 57°26' E 010°33'0 0.0
2018-Sep-14 05:52N 57°26' E 010°33'0 0.0
2018-Sep-14 05:25N 57°26' E 010°33'0 0.0
2018-Sep-14 05:01N 57°26' E 010°33'0 0.0
2018-Sep-14 04:31N 57°26' E 010°33'0 0.0
2018-Sep-14 04:10N 57°26' E 010°33'0 0.0
2018-Sep-14 03:58N 57°26' E 010°33'0 0.0
2018-Sep-14 02:40N 57°26' E 010°33'0 0.0
2018-Sep-14 01:34N 57°26' E 010°33'0 0.0
2018-Sep-14 00:43N 57°26' E 010°33'0 0.0
2018-Sep-14 00:28N 57°26' E 010°33'0 0.0
2018-Sep-13 23:49N 57°26' E 010°33'0 0.0
2018-Sep-13 23:10N 57°26' E 010°33'0 0.0
2018-Sep-13 22:55N 57°26' E 010°33'0 0.0
2018-Sep-13 21:52N 57°26' E 010°33'0 0.0
2018-Sep-13 21:19N 57°26' E 010°33'0 0.0
2018-Sep-13 15:58N 57°26' E 010°33'0 0.0
2018-Sep-13 15:16N 57°26' E 010°33'0 0.0
2018-Sep-13 14:46N 57°26' E 010°33'0 0.0
2018-Sep-13 13:58N 57°26' E 010°33'0 0.0
2018-Sep-13 13:10N 57°26' E 010°33'0 0.0
2018-Sep-13 13:01N 57°26' E 010°33'0 0.0
2018-Sep-13 12:52N 57°26' E 010°33'0 0.0
2018-Sep-13 12:25N 57°26' E 010°33'0 0.0
2018-Sep-13 11:58N 57°26' E 010°33'0 0.0
2018-Sep-13 10:58N 57°26' E 010°33'0 0.0
2018-Sep-13 08:40N 57°26' E 010°33'0 0.0
2018-Sep-13 08:19N 57°26' E 010°33'0 0.0
2018-Sep-13 07:58N 57°26' E 010°33'0 0.0
2018-Sep-13 05:40N 57°26' E 010°33'0 0.0
2018-Sep-13 05:10N 57°26' E 010°33'0 0.0
2018-Sep-13 04:58N 57°26' E 010°33'0 0.0
2018-Sep-12 14:13N 57°26' E 010°33'0 0.0
2018-Sep-12 13:55N 57°26' E 010°33'0 0.0
2018-Sep-12 13:28N 57°26' E 010°33'0 0.0
2018-Sep-12 12:43N 57°26' E 010°33'0 0.0
2018-Sep-12 12:16N 57°26' E 010°33'0 0.0
2018-Sep-12 11:55N 57°26' E 010°33'0 0.0
2018-Sep-12 11:13N 57°26' E 010°33'0 0.0
2018-Sep-12 10:49N 57°26' E 010°33'0 0.0
2018-Sep-12 10:01N 57°26' E 010°33'0 0.1
2018-Sep-12 09:55N 57°26' E 010°33'0 0.0
2018-Sep-12 09:28N 57°26' E 010°33'0 0.0
2018-Sep-12 08:34N 57°26' E 010°33'0 0.0
2018-Sep-12 08:16N 57°26' E 010°33'0 0.0
2018-Sep-12 07:22N 57°26' E 010°33'0 0.0
2018-Sep-12 06:04N 57°26' E 010°33'0 0.0
2018-Sep-12 05:46N 57°26' E 010°33'0 0.0
2018-Sep-11 11:01N 57°26' E 010°33'0 0.0
2018-Sep-11 10:43N 57°26' E 010°33'0 0.0
2018-Sep-11 08:01N 57°26' E 010°33'  
Track history (hours):
 
Tides and Currents Weather Stations Pressure Air Temp Water Temp Dewpoint Dewpoint Depression Visibility Wind Speed Wind Dir Waves Ship Positions

Oceanographic research ship Ernest Shackleton (UK/Norway)

Detailed information on ship capabilities available from University of Delaware's Ocean Information Center and ARCUS's ALIAS (Arctic Logistics Information and Support) project.

Last reported at 2018-Sep-18 17:23 UTC. Time now 2018-Sep-19 01:19 UTC.
Position N 57°26' E 010°33'.

Length 80 m; beam 17 m; draft 7.4 m.

Type: Cargo ship. MMSI: 740357000.

Date/timePositionNaut miles runAvg speedWind from/ knotsBaromVisibWave heightAir tempDewpointWater temp
2018-Sep-18 17:23N 57°26' E 010°33'0 0.0
2018-Sep-18 16:59N 57°26' E 010°33'0 0.0
2018-Sep-18 16:29N 57°26' E 010°33'0 0.0
2018-Sep-18 15:53N 57°26' E 010°33'0 0.0
2018-Sep-18 15:29N 57°26' E 010°33'0 0.1
2018-Sep-18 14:14N 57°26' E 010°33'0 0.3
2018-Sep-18 13:56N 57°26' E 010°33'0 0.0
2018-Sep-18 13:23N 57°26' E 010°33'0 0.0
2018-Sep-18 12:56N 57°26' E 010°33'0 0.0
2018-Sep-18 12:20N 57°26' E 010°33'0 0.0
2018-Sep-18 11:59N 57°26' E 010°33'0 0.0
2018-Sep-18 11:26N 57°26' E 010°33'0 0.0
2018-Sep-18 10:59N 57°26' E 010°33'0 0.0
2018-Sep-18 10:26N 57°26' E 010°33'0 0.0
2018-Sep-18 09:59N 57°26' E 010°33'0 0.0
2018-Sep-18 09:23N 57°26' E 010°33'0 0.0
2018-Sep-18 08:41N 57°26' E 010°33'0 0.0
2018-Sep-18 08:23N 57°26' E 010°33'0 0.0
2018-Sep-18 07:26N 57°26' E 010°33'0 0.0
2018-Sep-18 07:02N 57°26' E 010°33'0 0.0
2018-Sep-18 06:59N 57°26' E 010°33'0 0.0
2018-Sep-18 06:29N 57°26' E 010°33'0 0.0
2018-Sep-18 05:59N 57°26' E 010°33'0 0.0
2018-Sep-18 05:29N 57°26' E 010°33'0 0.0
2018-Sep-18 04:59N 57°26' E 010°33'0 0.0
2018-Sep-18 04:29N 57°26' E 010°33'0 0.0
2018-Sep-18 03:59N 57°26' E 010°33'0 0.0
2018-Sep-17 19:53N 57°26' E 010°33'0 0.0
2018-Sep-17 19:26N 57°26' E 010°33'0 0.0
2018-Sep-17 18:47N 57°26' E 010°33'0 0.0
2018-Sep-17 18:26N 57°26' E 010°33'0 0.0
2018-Sep-17 17:44N 57°26' E 010°33'0 0.4
2018-Sep-17 17:30N 57°26' E 010°33'3 7.4
2018-Sep-17 17:03N 57°25' E 010°38'1 9.2
2018-Sep-17 16:59N 57°24' E 010°39'1 3.0
2018-Sep-17 16:30N 57°25' E 010°42'2 4.8
2018-Sep-17 16:04N 57°25' E 010°46'0 2.7
2018-Sep-17 16:00N 57°25' E 010°46'0 0.1
2018-Sep-17 15:30N 57°25' E 010°46'0 0.0
2018-Sep-17 15:03N 57°25' E 010°46'0 0.0
2018-Sep-17 15:00N 57°25' E 010°46'0 0.0
2018-Sep-17 14:30N 57°25' E 010°46'0 0.2
2018-Sep-17 14:01N 57°25' E 010°46'0 0.0
2018-Sep-17 13:30N 57°25' E 010°46'0 0.1
2018-Sep-17 13:03N 57°25' E 010°46'0 0.7
2018-Sep-17 13:00N 57°25' E 010°46'0 0.5
2018-Sep-17 12:31N 57°25' E 010°47'0 0.5
2018-Sep-17 12:03N 57°25' E 010°47'0 0.8
2018-Sep-17 12:00N 57°25' E 010°47'2 4.4
2018-Sep-17 11:30N 57°27' E 010°49'4 9.4
2018-Sep-17 11:03N 57°31' E 010°53'110.5
2018-Sep-17 11:00N 57°31' E 010°53'5 9.6
2018-Sep-17 10:30N 57°29' E 010°45'510.4
2018-Sep-17 10:02N 57°26' E 010°38'010.3
2018-Sep-17 10:00N 57°25' E 010°38'3 2.4
2018-Sep-17 08:49N 57°26' E 010°33'0 0.0
2018-Sep-17 08:19N 57°26' E 010°33'0 0.0
2018-Sep-17 08:01N 57°26' E 010°33'0 0.0
2018-Sep-17 07:55N 57°26' E 010°33'0 0.0
2018-Sep-17 07:22N 57°26' E 010°33'0 0.0
2018-Sep-17 06:25N 57°26' E 010°33'0 0.0
2018-Sep-17 05:52N 57°26' E 010°33'0 0.0
2018-Sep-17 01:22N 57°26' E 010°33'0 0.0
2018-Sep-16 10:37N 57°26' E 010°33'0 0.0
2018-Sep-16 10:10N 57°26' E 010°33'0 0.0
2018-Sep-16 10:01N 57°26' E 010°33'0 0.0
2018-Sep-16 09:55N 57°26' E 010°33'0 0.0
2018-Sep-16 08:07N 57°26' E 010°33'0 0.0
2018-Sep-16 06:31N 57°26' E 010°33'0 0.0
2018-Sep-16 06:28N 57°26' E 010°33'0 0.0
2018-Sep-16 05:49N 57°26' E 010°33'0 0.0
2018-Sep-16 05:28N 57°26' E 010°33'0 0.0
2018-Sep-16 05:01N 57°26' E 010°33'0 0.1
2018-Sep-16 04:58N 57°26' E 010°33'0 0.0
2018-Sep-16 04:25N 57°26' E 010°33'0 0.0
2018-Sep-16 04:01N 57°26' E 010°33'0 0.0
2018-Sep-16 03:58N 57°26' E 010°33'0 0.0
2018-Sep-16 03:28N 57°26' E 010°33'0 0.0
2018-Sep-16 02:58N 57°26' E 010°33'0 0.0
2018-Sep-16 02:25N 57°26' E 010°33'0 0.0
2018-Sep-16 02:01N 57°26' E 010°33'0 0.0
2018-Sep-16 01:52N 57°26' E 010°33'0 0.0
2018-Sep-16 01:28N 57°26' E 010°33'0 0.0
2018-Sep-16 00:55N 57°26' E 010°33'0 0.0
2018-Sep-16 00:28N 57°26' E 010°33'0 0.0
2018-Sep-15 23:55N 57°26' E 010°33'0 0.0
2018-Sep-15 23:13N 57°26' E 010°33'0 0.0
2018-Sep-15 23:01N 57°26' E 010°33'0 0.1
2018-Sep-15 22:58N 57°26' E 010°33'0 0.0
2018-Sep-15 22:28N 57°26' E 010°33'0 0.0
2018-Sep-15 21:58N 57°26' E 010°33'0 0.0
2018-Sep-15 21:25N 57°26' E 010°33'0 0.0
2018-Sep-15 21:01N 57°26' E 010°33'0 0.0
2018-Sep-15 20:58N 57°26' E 010°33'0 0.0
2018-Sep-15 18:19N 57°26' E 010°33'0 0.0
2018-Sep-15 17:31N 57°26' E 010°33'0 0.0
2018-Sep-15 17:19N 57°26' E 010°33'0 0.0
2018-Sep-15 16:49N 57°26' E 010°33'0 0.0
2018-Sep-15 16:28N 57°26' E 010°33'0 0.0
2018-Sep-15 15:19N 57°26' E 010°33'0 0.0
2018-Sep-15 14:55N 57°26' E 010°33'0 0.0
2018-Sep-15 14:07N 57°26' E 010°33'0 0.0
2018-Sep-15 13:16N 57°26' E 010°33'0 0.0
2018-Sep-15 13:01N 57°26' E 010°33'0 0.0
2018-Sep-15 12:37N 57°26' E 010°33'0 0.0
2018-Sep-15 12:16N 57°26' E 010°33'0 0.0
2018-Sep-15 11:58N 57°26' E 010°33'0 0.0
2018-Sep-15 11:25N 57°26' E 010°33'0 0.0
2018-Sep-15 10:55N 57°26' E 010°33'0 0.0
2018-Sep-15 10:28N 57°26' E 010°33'0 0.0
2018-Sep-15 09:55N 57°26' E 010°33'0 0.0
2018-Sep-15 08:22N 57°26' E 010°33'0 0.0
2018-Sep-15 07:58N 57°26' E 010°33'0 0.0
2018-Sep-15 07:28N 57°26' E 010°33'0 0.0
2018-Sep-15 07:01N 57°26' E 010°33'0 0.1
2018-Sep-15 06:55N 57°26' E 010°33'0 0.0
2018-Sep-15 06:19N 57°26' E 010°33'0 0.0
2018-Sep-15 05:58N 57°26' E 010°33'0 0.0
2018-Sep-15 05:25N 57°26' E 010°33'0 0.0
2018-Sep-15 05:01N 57°26' E 010°33'0 0.1
2018-Sep-15 04:58N 57°26' E 010°33'0 0.0
2018-Sep-15 04:25N 57°26' E 010°33'0 0.0
2018-Sep-15 04:01N 57°26' E 010°33'0 0.1
2018-Sep-15 03:58N 57°26' E 010°33'0 0.0
2018-Sep-15 03:25N 57°26' E 010°33'0 0.0
2018-Sep-15 02:37N 57°26' E 010°33'0 0.0
2018-Sep-15 02:10N 57°26' E 010°33'0 0.0
2018-Sep-15 01:58N 57°26' E 010°33'0 0.0
2018-Sep-15 01:22N 57°26' E 010°33'0 0.0
2018-Sep-15 00:58N 57°26' E 010°33'0 0.0
2018-Sep-15 00:28N 57°26' E 010°33'0 0.0
2018-Sep-14 23:55N 57°26' E 010°33'0 0.0
2018-Sep-14 23:25N 57°26' E 010°33'0 0.0
2018-Sep-14 22:55N 57°26' E 010°33'0 0.0
2018-Sep-14 22:25N 57°26' E 010°33'0 0.0
2018-Sep-14 21:46N 57°26' E 010°33'0 0.0
2018-Sep-14 21:25N 57°26' E 010°33'0 0.0
2018-Sep-14 20:55N 57°26' E 010°33'0 0.0
2018-Sep-14 20:28N 57°26' E 010°33'0 0.0
2018-Sep-14 19:52N 57°26' E 010°33'0 0.0
2018-Sep-14 19:13N 57°26' E 010°33'0 0.0
2018-Sep-14 18:46N 57°26' E 010°33'0 0.0
2018-Sep-14 18:28N 57°26' E 010°33'0 0.0
2018-Sep-14 18:01N 57°26' E 010°33'0 0.0
2018-Sep-14 17:43N 57°26' E 010°33'0 0.0
2018-Sep-14 17:19N 57°26' E 010°33'0 0.0
2018-Sep-14 16:55N 57°26' E 010°33'0 0.0
2018-Sep-14 16:28N 57°26' E 010°33'0 0.0
2018-Sep-14 15:52N 57°26' E 010°33'0 0.0
2018-Sep-14 15:25N 57°26' E 010°33'0 0.0
2018-Sep-14 15:01N 57°26' E 010°33'0 0.0
2018-Sep-14 14:58N 57°26' E 010°33'0 0.0
2018-Sep-14 14:28N 57°26' E 010°33'0 0.0
2018-Sep-14 13:58N 57°26' E 010°33'0 0.0
2018-Sep-14 13:25N 57°26' E 010°33'0 0.0
2018-Sep-14 12:49N 57°26' E 010°33'0 0.0
2018-Sep-14 12:25N 57°26' E 010°33'0 0.0
2018-Sep-14 12:01N 57°26' E 010°33'0 0.0
2018-Sep-14 11:58N 57°26' E 010°33'0 0.0
2018-Sep-14 11:28N 57°26' E 010°33'0 0.0
2018-Sep-14 10:55N 57°26' E 010°33'0 0.0
2018-Sep-14 10:28N 57°26' E 010°33'0 0.0
2018-Sep-14 10:01N 57°26' E 010°33'0 0.1
2018-Sep-14 09:58N 57°26' E 010°33'0 0.0
2018-Sep-14 09:25N 57°26' E 010°33'0 0.0
2018-Sep-14 08:58N 57°26' E 010°33'0 0.0
2018-Sep-14 08:28N 57°26' E 010°33'0 0.0
2018-Sep-14 08:01N 57°26' E 010°33'0 0.1
2018-Sep-14 07:58N 57°26' E 010°33'0 0.0
2018-Sep-14 07:28N 57°26' E 010°33'0 0.0
2018-Sep-14 06:58N 57°26' E 010°33'0 0.0
2018-Sep-14 05:52N 57°26' E 010°33'0 0.0
2018-Sep-14 05:25N 57°26' E 010°33'0 0.0
2018-Sep-14 05:01N 57°26' E 010°33'0 0.0
2018-Sep-14 04:31N 57°26' E 010°33'0 0.0
2018-Sep-14 04:10N 57°26' E 010°33'0 0.0
2018-Sep-14 03:58N 57°26' E 010°33'0 0.0
2018-Sep-14 02:40N 57°26' E 010°33'0 0.0
2018-Sep-14 01:34N 57°26' E 010°33'0 0.0
2018-Sep-14 00:43N 57°26' E 010°33'0 0.0
2018-Sep-14 00:28N 57°26' E 010°33'0 0.0
2018-Sep-13 23:49N 57°26' E 010°33'0 0.0
2018-Sep-13 23:10N 57°26' E 010°33'0 0.0
2018-Sep-13 22:55N 57°26' E 010°33'0 0.0
2018-Sep-13 21:52N 57°26' E 010°33'0 0.0
2018-Sep-13 21:19N 57°26' E 010°33'0 0.0
2018-Sep-13 15:58N 57°26' E 010°33'0 0.0
2018-Sep-13 15:16N 57°26' E 010°33'0 0.0
2018-Sep-13 14:46N 57°26' E 010°33'0 0.0
2018-Sep-13 13:58N 57°26' E 010°33'0 0.0
2018-Sep-13 13:10N 57°26' E 010°33'0 0.0
2018-Sep-13 13:01N 57°26' E 010°33'0 0.0
2018-Sep-13 12:52N 57°26' E 010°33'0 0.0
2018-Sep-13 12:25N 57°26' E 010°33'0 0.0
2018-Sep-13 11:58N 57°26' E 010°33'0 0.0
2018-Sep-13 10:58N 57°26' E 010°33'0 0.0
2018-Sep-13 08:40N 57°26' E 010°33'0 0.0
2018-Sep-13 08:19N 57°26' E 010°33'0 0.0
2018-Sep-13 07:58N 57°26' E 010°33'0 0.0
2018-Sep-13 05:40N 57°26' E 010°33'0 0.0
2018-Sep-13 05:10N 57°26' E 010°33'0 0.0
2018-Sep-13 04:58N 57°26' E 010°33'0 0.0
2018-Sep-12 14:13N 57°26' E 010°33'0 0.0
2018-Sep-12 13:55N 57°26' E 010°33'0 0.0
2018-Sep-12 13:28N 57°26' E 010°33'0 0.0
2018-Sep-12 12:43N 57°26' E 010°33'0 0.0
2018-Sep-12 12:16N 57°26' E 010°33'0 0.0
2018-Sep-12 11:55N 57°26' E 010°33'0 0.0
2018-Sep-12 11:13N 57°26' E 010°33'0 0.0
2018-Sep-12 10:49N 57°26' E 010°33'0 0.0
2018-Sep-12 10:01N 57°26' E 010°33'0 0.1
2018-Sep-12 09:55N 57°26' E 010°33'0 0.0
2018-Sep-12 09:28N 57°26' E 010°33'0 0.0
2018-Sep-12 08:34N 57°26' E 010°33'0 0.0
2018-Sep-12 08:16N 57°26' E 010°33'0 0.0
2018-Sep-12 07:22N 57°26' E 010°33'0 0.0
2018-Sep-12 06:04N 57°26' E 010°33'0 0.0
2018-Sep-12 05:46N 57°26' E 010°33'0 0.0
2018-Sep-11 11:01N 57°26' E 010°33'0 0.0
2018-Sep-11 10:43N 57°26' E 010°33'0 0.0
2018-Sep-11 08:01N 57°26' E 010°33'  

Dump ship's entire track history